createdAt,value
2023-03-31T00:01:00.647Z,7.33
2023-03-31T00:03:27.732Z,6.00
2023-03-31T00:05:59.323Z,9.60
2023-03-31T00:08:29.914Z,9.00
2023-03-31T00:11:00.686Z,14.70
2023-03-31T00:13:27.541Z,8.60
2023-03-31T00:16:09.313Z,7.40
2023-03-31T00:18:37.075Z,9.33
2023-03-31T00:21:09.131Z,13.43
2023-03-31T00:23:35.892Z,7.93
2023-03-31T00:26:02.566Z,6.83
2023-03-31T00:28:29.052Z,4.70
2023-03-31T00:31:00.379Z,6.20
2023-03-31T00:33:26.855Z,13.63
2023-03-31T00:35:53.344Z,8.43
2023-03-31T00:38:21.924Z,6.90
2023-03-31T00:40:51.167Z,13.40
2023-03-31T00:43:38.323Z,5.90
2023-03-31T00:46:17.787Z,10.80
2023-03-31T00:48:50.924Z,9.17
2023-03-31T00:51:19.160Z,5.53
2023-03-31T00:53:55.381Z,16.47
2023-03-31T00:56:22.280Z,7.67
2023-03-31T00:58:49.952Z,8.53
2023-03-31T01:01:20.583Z,10.60
2023-03-31T01:03:48.105Z,6.87
2023-03-31T01:06:19.691Z,8.50
2023-03-31T01:08:49.972Z,8.20
2023-03-31T01:11:20.814Z,8.10
2023-03-31T01:13:50.869Z,14.30
2023-03-31T01:16:18.456Z,9.53
2023-03-31T01:18:46.478Z,6.87
2023-03-31T01:21:42.660Z,8.97
2023-03-31T01:24:47.325Z,7.70
2023-03-31T01:27:22.149Z,10.60
2023-03-31T01:30:28.275Z,7.20
2023-03-31T01:32:57.824Z,6.93
2023-03-31T01:36:02.866Z,8.50
2023-03-31T01:38:57.455Z,12.47
2023-03-31T01:41:31.071Z,14.40
2023-03-31T01:44:16.413Z,6.90
2023-03-31T01:46:58.432Z,14.77
2023-03-31T01:49:46.720Z,7.57
2023-03-31T01:52:13.897Z,7.47
2023-03-31T01:54:50.857Z,5.60
2023-03-31T01:57:28.181Z,11.40
2023-03-31T02:00:09.743Z,8.23
2023-03-31T02:02:46.364Z,6.57
2023-03-31T02:05:18.990Z,6.67
2023-03-31T02:07:54.728Z,8.43
2023-03-31T02:10:24.120Z,8.63
2023-03-31T02:12:51.778Z,8.13
2023-03-31T02:15:27.128Z,10.63
2023-03-31T02:17:58.148Z,11.93
2023-03-31T02:20:27.343Z,9.80
2023-03-31T02:22:56.469Z,6.77
2023-03-31T02:25:28.614Z,6.30
2023-03-31T02:28:04.727Z,6.60
2023-03-31T02:30:45.227Z,7.50
2023-03-31T02:33:11.999Z,6.97
2023-03-31T02:35:38.462Z,11.53
2023-03-31T02:38:06.748Z,7.60
2023-03-31T02:40:33.188Z,10.00
2023-03-31T02:42:59.874Z,6.50
2023-03-31T02:45:46.062Z,10.50
2023-03-31T02:48:24.670Z,6.80
2023-03-31T02:51:44.868Z,7.10
2023-03-31T02:55:03.952Z,13.93
2023-03-31T02:58:04.420Z,16.50
2023-03-31T03:00:55.310Z,7.50
2023-03-31T03:03:58.891Z,7.97
2023-03-31T03:06:53.895Z,7.37
2023-03-31T03:09:34.039Z,8.63
2023-03-31T03:12:16.253Z,11.03
2023-03-31T03:15:13.587Z,8.03
2023-03-31T03:17:44.123Z,7.77
2023-03-31T03:20:12.107Z,3.97
2023-03-31T03:22:39.467Z,8.63
2023-03-31T03:25:09.535Z,6.40
2023-03-31T03:27:36.746Z,10.20
2023-03-31T03:30:06.434Z,5.03
2023-03-31T03:32:33.741Z,7.57
2023-03-31T03:35:05.429Z,7.57
2023-03-31T03:37:32.422Z,12.83
2023-03-31T03:39:58.922Z,10.63
2023-03-31T03:42:25.370Z,7.73
2023-03-31T03:44:51.838Z,18.07
2023-03-31T03:47:18.304Z,9.93
2023-03-31T03:49:44.787Z,12.20
2023-03-31T03:52:11.278Z,6.60
2023-03-31T03:54:37.755Z,8.27
2023-03-31T03:57:04.234Z,13.57
2023-03-31T03:59:30.712Z,10.60
2023-03-31T04:01:57.274Z,11.57
2023-03-31T04:04:23.876Z,10.70
2023-03-31T04:06:51.169Z,7.60
2023-03-31T04:09:18.012Z,11.23
2023-03-31T04:11:44.507Z,7.40
2023-03-31T04:14:11.110Z,10.10
2023-03-31T04:16:38.427Z,11.07
2023-03-31T04:19:05.166Z,12.00
2023-03-31T04:21:34.794Z,10.00
2023-03-31T04:24:04.336Z,12.57
2023-03-31T04:26:43.180Z,10.33
2023-03-31T04:29:16.580Z,12.20
2023-03-31T04:31:44.067Z,10.17
2023-03-31T04:34:13.641Z,8.33
2023-03-31T04:36:42.639Z,10.37
2023-03-31T04:39:10.780Z,14.80
2023-03-31T04:41:37.890Z,8.20
2023-03-31T04:44:04.593Z,10.90
2023-03-31T04:46:31.980Z,12.27
2023-03-31T04:48:59.246Z,10.77
2023-03-31T04:51:25.940Z,14.33
2023-03-31T04:53:52.378Z,9.30
2023-03-31T04:56:18.853Z,10.03
2023-03-31T04:58:45.444Z,16.00
2023-03-31T05:01:13.751Z,11.90
2023-03-31T05:03:40.447Z,13.33
2023-03-31T05:06:07.636Z,10.73
2023-03-31T05:08:34.523Z,10.23
2023-03-31T05:11:02.841Z,7.13
2023-03-31T05:13:29.729Z,13.63
2023-03-31T05:15:56.258Z,13.70
2023-03-31T05:18:22.743Z,19.20
2023-03-31T05:20:49.328Z,10.40
2023-03-31T05:23:15.799Z,10.33
2023-03-31T05:25:42.760Z,15.00
2023-03-31T05:28:12.171Z,15.27
2023-03-31T05:30:38.730Z,12.43
2023-03-31T05:33:05.270Z,13.33
2023-03-31T05:35:31.991Z,8.90
2023-03-31T05:37:58.579Z,20.93
2023-03-31T05:40:25.703Z,12.00
2023-03-31T05:42:52.139Z,8.60
2023-03-31T05:45:18.620Z,11.13
2023-03-31T05:47:45.234Z,13.47
2023-03-31T05:50:14.035Z,16.60
2023-03-31T05:52:41.185Z,15.13
2023-03-31T05:55:08.375Z,10.60
2023-03-31T05:57:34.909Z,14.60
2023-03-31T06:00:01.406Z,15.03
2023-03-31T06:02:31.317Z,12.97
2023-03-31T06:04:57.828Z,10.60
2023-03-31T06:07:25.013Z,13.83
2023-03-31T06:09:51.648Z,10.10
2023-03-31T06:12:18.262Z,14.00
2023-03-31T06:14:44.688Z,12.00
2023-03-31T06:17:11.192Z,21.73
2023-03-31T06:19:40.065Z,13.43
2023-03-31T06:22:06.524Z,13.93
2023-03-31T06:24:32.975Z,10.03
2023-03-31T06:27:00.900Z,8.90
2023-03-31T06:29:27.836Z,20.10
2023-03-31T06:31:54.366Z,14.50
2023-03-31T06:34:21.651Z,9.30
2023-03-31T06:36:48.192Z,9.73
2023-03-31T06:39:14.637Z,15.03
2023-03-31T06:41:41.080Z,10.23
2023-03-31T06:44:08.988Z,14.13
2023-03-31T06:46:35.541Z,9.33
2023-03-31T06:49:02.290Z,8.93
2023-03-31T06:51:30.597Z,14.50
2023-03-31T06:53:58.208Z,11.67
2023-03-31T06:56:24.661Z,10.37
2023-03-31T06:58:51.103Z,14.53
2023-03-31T07:01:17.642Z,7.53
2023-03-31T07:03:44.200Z,12.27
2023-03-31T07:06:11.245Z,13.10
2023-03-31T07:08:37.712Z,8.90
2023-03-31T07:11:04.812Z,11.03
2023-03-31T07:13:31.736Z,12.20
2023-03-31T07:15:58.498Z,8.03
2023-03-31T07:18:26.211Z,10.70
2023-03-31T07:20:53.029Z,13.23
2023-03-31T07:23:20.742Z,12.00
2023-03-31T07:25:48.200Z,8.77
2023-03-31T07:28:15.288Z,12.20
2023-03-31T07:30:42.019Z,11.43
2023-03-31T07:33:09.373Z,17.17
2023-03-31T07:35:40.124Z,19.40
2023-03-31T07:38:08.707Z,12.40
2023-03-31T07:40:35.239Z,13.97
2023-03-31T07:43:02.104Z,12.33
2023-03-31T07:45:28.835Z,14.43
2023-03-31T07:47:55.508Z,16.57
2023-03-31T07:50:23.537Z,17.17
2023-03-31T07:52:52.585Z,15.40
2023-03-31T07:55:20.063Z,14.00
2023-03-31T07:57:47.562Z,13.10
2023-03-31T08:00:15.782Z,18.10
2023-03-31T08:02:43.171Z,15.77
2023-03-31T08:05:12.051Z,11.67
2023-03-31T08:07:41.732Z,10.70
2023-03-31T08:10:11.144Z,13.70
2023-03-31T08:12:37.622Z,14.40
2023-03-31T08:15:05.219Z,12.63
2023-03-31T08:17:31.827Z,9.37
2023-03-31T08:20:01.668Z,11.70
2023-03-31T08:22:30.570Z,16.83
2023-03-31T08:24:57.013Z,15.17
2023-03-31T08:27:23.680Z,12.33
2023-03-31T08:29:50.095Z,15.77
2023-03-31T08:32:16.652Z,14.23
2023-03-31T08:34:43.077Z,12.47
2023-03-31T08:37:10.410Z,15.83
2023-03-31T08:39:37.270Z,15.33
2023-03-31T08:42:33.450Z,12.57
2023-03-31T08:45:06.508Z,12.20
2023-03-31T08:47:36.515Z,10.40
2023-03-31T08:50:16.828Z,13.80
2023-03-31T08:52:49.699Z,15.13
2023-03-31T08:55:32.432Z,8.10
2023-03-31T08:58:06.695Z,8.00
2023-03-31T09:00:43.897Z,6.33
2023-03-31T09:03:25.811Z,4.83
2023-03-31T09:06:05.601Z,4.93
2023-03-31T09:08:38.064Z,8.37
2023-03-31T09:11:27.017Z,7.43
2023-03-31T09:14:12.315Z,6.03
2023-03-31T09:16:48.713Z,6.60
2023-03-31T09:19:23.729Z,5.17
2023-03-31T09:21:53.300Z,5.27
2023-03-31T09:24:30.925Z,8.37
2023-03-31T09:27:12.583Z,5.27
2023-03-31T09:30:11.917Z,4.80
2023-03-31T09:32:39.420Z,3.57
2023-03-31T09:35:21.560Z,3.30
2023-03-31T09:37:49.503Z,4.00
2023-03-31T09:40:24.622Z,3.70
2023-03-31T09:42:58.142Z,2.30
2023-03-31T09:45:24.944Z,7.10
2023-03-31T09:47:55.075Z,5.70
2023-03-31T09:50:25.403Z,5.20
2023-03-31T09:52:55.706Z,3.27
2023-03-31T09:55:38.957Z,3.87
2023-03-31T09:58:08.405Z,3.43
2023-03-31T10:00:35.530Z,3.10
2023-03-31T10:03:07.568Z,2.63
2023-03-31T10:05:51.048Z,4.30
2023-03-31T10:08:17.534Z,2.47
2023-03-31T10:10:51.143Z,7.33
2023-03-31T10:13:22.299Z,5.30
2023-03-31T10:15:55.792Z,4.60
2023-03-31T10:18:32.125Z,4.27
2023-03-31T10:21:05.503Z,5.43
2023-03-31T10:23:34.617Z,4.77
2023-03-31T10:26:03.689Z,3.00
2023-03-31T10:28:36.127Z,3.87
2023-03-31T10:31:04.143Z,3.30
2023-03-31T10:33:34.883Z,5.37
2023-03-31T10:36:15.836Z,4.10
2023-03-31T10:38:48.475Z,4.80
2023-03-31T10:41:27.192Z,5.33
2023-03-31T10:43:55.706Z,2.83
2023-03-31T10:46:40.576Z,2.67
2023-03-31T10:49:15.846Z,4.50
2023-03-31T10:51:56.143Z,5.47
2023-03-31T10:54:22.717Z,6.17
2023-03-31T10:57:03.329Z,4.80
2023-03-31T10:59:58.695Z,5.13
2023-03-31T11:02:51.601Z,5.33
2023-03-31T11:05:30.170Z,7.93
2023-03-31T11:08:27.597Z,5.23
2023-03-31T11:11:38.585Z,6.87
2023-03-31T11:14:36.389Z,4.03
2023-03-31T11:17:23.163Z,4.70
2023-03-31T11:20:03.282Z,8.33
2023-03-31T11:22:43.101Z,6.90
2023-03-31T11:25:28.602Z,3.13
2023-03-31T11:28:24.615Z,4.00
2023-03-31T11:31:04.094Z,1.97
2023-03-31T11:33:55.468Z,3.13
2023-03-31T11:36:49.476Z,2.20
2023-03-31T11:39:39.375Z,5.53
2023-03-31T11:42:16.309Z,2.73
2023-03-31T11:44:48.239Z,2.37
2023-03-31T11:47:19.726Z,2.50
2023-03-31T11:49:53.027Z,3.13
2023-03-31T11:52:27.091Z,3.47
2023-03-31T11:55:06.542Z,3.23
2023-03-31T11:57:36.345Z,2.63
2023-03-31T12:00:22.571Z,4.17
2023-03-31T12:03:41.395Z,2.87
2023-03-31T12:06:19.839Z,2.20
2023-03-31T12:09:02.493Z,6.13
2023-03-31T12:11:40.843Z,2.40
2023-03-31T12:14:23.724Z,2.67
2023-03-31T12:17:00.079Z,3.37
2023-03-31T12:19:52.203Z,4.53
2023-03-31T12:22:29.943Z,2.53
2023-03-31T12:24:59.849Z,1.43
2023-03-31T12:27:29.459Z,1.30
2023-03-31T12:30:09.985Z,2.83
2023-03-31T12:32:49.461Z,2.33
2023-03-31T12:35:27.350Z,2.07
2023-03-31T12:38:00.452Z,2.20
2023-03-31T12:40:51.860Z,2.10
2023-03-31T12:43:33.346Z,4.00
2023-03-31T12:46:30.974Z,2.57
2023-03-31T12:49:00.585Z,1.40
2023-03-31T12:51:52.076Z,5.10
2023-03-31T12:54:37.997Z,4.30
2023-03-31T12:57:05.906Z,2.90
2023-03-31T12:59:43.780Z,2.27
2023-03-31T13:02:10.461Z,5.30
2023-03-31T13:04:38.164Z,7.17
2023-03-31T13:07:25.090Z,5.27
2023-03-31T13:09:59.232Z,5.00
2023-03-31T13:12:28.604Z,2.27
2023-03-31T13:14:59.947Z,2.33
2023-03-31T13:17:37.829Z,3.13
2023-03-31T13:20:33.116Z,2.60
2023-03-31T13:23:21.755Z,2.87
2023-03-31T13:25:59.218Z,6.43
2023-03-31T13:28:31.524Z,2.60
2023-03-31T13:31:03.906Z,3.40
2023-03-31T13:33:49.161Z,2.20
2023-03-31T13:36:34.032Z,2.03
2023-03-31T13:39:30.670Z,5.60
2023-03-31T13:42:06.027Z,2.03
2023-03-31T13:45:03.281Z,3.73
2023-03-31T13:48:09.950Z,7.23
2023-03-31T13:50:36.491Z,2.47
2023-03-31T13:53:21.431Z,3.77
2023-03-31T13:56:26.899Z,3.47
2023-03-31T13:59:18.351Z,0.93
2023-03-31T14:01:50.850Z,1.27
2023-03-31T14:04:56.166Z,3.67
2023-03-31T14:07:31.731Z,2.70
2023-03-31T14:09:59.535Z,5.13
2023-03-31T14:12:33.742Z,2.93
2023-03-31T14:15:00.425Z,4.23
2023-03-31T14:17:36.467Z,2.40
2023-03-31T14:20:21.343Z,2.50
2023-03-31T14:23:16.731Z,2.77
2023-03-31T14:26:11.519Z,7.83
2023-03-31T14:29:18.134Z,2.80
2023-03-31T14:31:56.460Z,2.17
2023-03-31T14:34:39.839Z,7.57
2023-03-31T14:37:11.440Z,2.70
2023-03-31T14:39:43.070Z,2.73
2023-03-31T14:42:16.027Z,2.20
2023-03-31T14:44:46.918Z,4.50
2023-03-31T14:47:22.757Z,1.73
2023-03-31T14:50:00.276Z,2.33
2023-03-31T14:52:30.694Z,3.20
2023-03-31T14:54:57.106Z,3.33
2023-03-31T14:57:52.305Z,3.03
2023-03-31T15:00:26.145Z,1.10
2023-03-31T15:02:54.411Z,2.47
2023-03-31T15:05:28.491Z,4.00
2023-03-31T15:07:59.730Z,1.80
2023-03-31T15:10:33.041Z,1.77
2023-03-31T15:13:01.694Z,2.23
2023-03-31T15:15:28.153Z,1.30
2023-03-31T15:17:54.933Z,1.40
2023-03-31T15:20:32.103Z,3.50
2023-03-31T15:23:04.454Z,1.60
2023-03-31T15:25:40.710Z,3.23
2023-03-31T15:28:13.037Z,2.60
2023-03-31T15:30:39.946Z,2.20
2023-03-31T15:33:19.148Z,2.03
2023-03-31T15:35:46.437Z,2.23
2023-03-31T15:38:18.735Z,2.23
2023-03-31T15:40:52.708Z,5.90
2023-03-31T15:43:50.565Z,3.63
2023-03-31T15:46:32.686Z,1.77
2023-03-31T15:49:00.044Z,4.10
2023-03-31T15:51:35.677Z,3.10
2023-03-31T15:54:02.410Z,3.00
2023-03-31T15:56:33.563Z,4.47
2023-03-31T15:59:20.889Z,3.13
2023-03-31T16:01:50.372Z,5.33
2023-03-31T16:04:17.806Z,2.83
2023-03-31T16:06:48.780Z,3.33
2023-03-31T16:09:26.569Z,3.03
2023-03-31T16:12:05.351Z,4.60
2023-03-31T16:14:37.256Z,6.47
2023-03-31T16:17:13.875Z,2.90
2023-03-31T16:19:48.062Z,4.50
2023-03-31T16:22:21.367Z,7.97
2023-03-31T16:24:49.000Z,3.80
2023-03-31T16:27:15.780Z,4.13
2023-03-31T16:29:42.380Z,2.80
2023-03-31T16:32:12.295Z,2.90
2023-03-31T16:34:59.656Z,3.00
2023-03-31T16:37:26.602Z,5.23
2023-03-31T16:39:53.854Z,4.10
2023-03-31T16:42:20.728Z,3.57
2023-03-31T16:45:00.013Z,5.87
2023-03-31T16:47:36.308Z,6.97
2023-03-31T16:50:07.191Z,4.90
2023-03-31T16:52:34.065Z,3.93
2023-03-31T16:55:01.342Z,2.60
2023-03-31T16:57:28.102Z,3.30
2023-03-31T16:59:57.351Z,1.67
2023-03-31T17:02:24.941Z,0.73
2023-03-31T17:04:54.204Z,1.33
2023-03-31T17:07:23.199Z,1.10
2023-03-31T17:09:49.640Z,2.03
2023-03-31T17:12:16.154Z,1.83
2023-03-31T17:14:42.577Z,5.30
2023-03-31T17:17:09.063Z,1.87
2023-03-31T17:19:35.570Z,3.20
2023-03-31T17:22:03.495Z,2.47
2023-03-31T17:24:29.935Z,3.37
2023-03-31T17:26:57.423Z,4.90
2023-03-31T17:29:24.688Z,4.23
2023-03-31T17:31:51.182Z,2.50
2023-03-31T17:34:18.054Z,3.47
2023-03-31T17:36:44.913Z,1.93
2023-03-31T17:39:11.461Z,2.30
2023-03-31T17:41:37.929Z,1.07
2023-03-31T17:44:04.716Z,1.13
2023-03-31T17:46:31.558Z,2.20
2023-03-31T17:48:59.489Z,1.30
2023-03-31T17:51:27.173Z,4.83
2023-03-31T17:53:53.665Z,6.83
2023-03-31T17:56:20.605Z,4.23
2023-03-31T17:58:47.160Z,3.53
2023-03-31T18:01:13.899Z,3.43
2023-03-31T18:03:41.110Z,1.47
2023-03-31T18:06:11.767Z,2.17
2023-03-31T18:08:39.671Z,1.10
2023-03-31T18:11:08.080Z,4.30
2023-03-31T18:13:36.246Z,1.77
2023-03-31T18:16:03.903Z,2.20
2023-03-31T18:18:30.460Z,3.00
2023-03-31T18:21:02.337Z,2.20
2023-03-31T18:23:28.781Z,2.80
2023-03-31T18:25:55.441Z,1.63
2023-03-31T18:28:22.113Z,2.07
2023-03-31T18:30:48.667Z,2.00
2023-03-31T18:33:15.288Z,1.90
2023-03-31T18:35:42.162Z,2.60
2023-03-31T18:38:09.726Z,2.00
2023-03-31T18:40:36.531Z,2.30
2023-03-31T18:43:03.307Z,2.20
2023-03-31T18:45:30.736Z,3.93
2023-03-31T18:47:57.819Z,2.17
2023-03-31T18:50:25.807Z,3.00
2023-03-31T18:52:53.290Z,1.90
2023-03-31T18:55:20.086Z,1.77
2023-03-31T18:57:46.673Z,3.53
2023-03-31T19:00:14.426Z,2.60
2023-03-31T19:02:41.750Z,2.00
2023-03-31T19:05:08.708Z,1.87
2023-03-31T19:07:35.718Z,1.37
2023-03-31T19:10:02.360Z,1.50
2023-03-31T19:12:28.988Z,1.87
2023-03-31T19:14:55.950Z,1.77
2023-03-31T19:17:22.519Z,2.83
2023-03-31T19:19:49.590Z,2.80
2023-03-31T19:22:16.368Z,1.20
2023-03-31T19:24:43.780Z,3.47
2023-03-31T19:27:12.172Z,2.60
2023-03-31T19:29:38.714Z,2.07
2023-03-31T19:32:06.077Z,2.33
2023-03-31T19:34:33.684Z,1.30
2023-03-31T19:37:01.922Z,2.13
2023-03-31T19:39:28.605Z,2.87
2023-03-31T19:41:55.145Z,3.73
2023-03-31T19:44:21.609Z,1.97
2023-03-31T19:46:48.203Z,6.47
2023-03-31T19:49:15.338Z,1.57
2023-03-31T19:51:41.974Z,1.93
2023-03-31T19:54:10.731Z,1.97
2023-03-31T19:56:38.026Z,3.13
2023-03-31T19:59:05.391Z,1.47
2023-03-31T20:01:32.948Z,1.20
2023-03-31T20:03:59.767Z,4.60
2023-03-31T20:06:29.010Z,2.10
2023-03-31T20:09:00.560Z,3.90
2023-03-31T20:11:28.892Z,6.57
2023-03-31T20:13:55.961Z,4.20
2023-03-31T20:16:25.179Z,3.43
2023-03-31T20:18:54.808Z,2.20
2023-03-31T20:21:23.764Z,5.20
2023-03-31T20:23:51.011Z,2.80
2023-03-31T20:26:20.768Z,2.80
2023-03-31T20:28:48.253Z,1.50
2023-03-31T20:31:21.652Z,3.87
2023-03-31T20:33:49.016Z,1.70
2023-03-31T20:36:18.578Z,4.07
2023-03-31T20:38:46.887Z,3.80
2023-03-31T20:41:14.690Z,4.17
2023-03-31T20:43:41.361Z,3.73
2023-03-31T20:46:10.039Z,4.70
2023-03-31T20:48:57.059Z,2.87
2023-03-31T20:51:26.244Z,4.67
2023-03-31T20:53:54.198Z,7.40
2023-03-31T20:56:29.501Z,7.43
2023-03-31T20:58:59.249Z,5.00
2023-03-31T21:01:27.806Z,3.80
2023-03-31T21:03:54.951Z,3.13
2023-03-31T21:06:21.593Z,2.40
2023-03-31T21:08:52.557Z,4.60
2023-03-31T21:11:19.851Z,1.20
2023-03-31T21:13:48.105Z,1.77
2023-03-31T21:16:14.991Z,9.60
2023-03-31T21:18:41.767Z,3.00
2023-03-31T21:21:12.217Z,10.53
2023-03-31T21:23:39.055Z,2.30
2023-03-31T21:26:07.668Z,8.33
2023-03-31T21:28:36.640Z,3.47
2023-03-31T21:31:07.762Z,4.83
2023-03-31T21:33:37.713Z,8.67
2023-03-31T21:36:06.680Z,3.23
2023-03-31T21:38:33.391Z,4.13
2023-03-31T21:41:08.782Z,1.67
2023-03-31T21:43:35.261Z,5.93
2023-03-31T21:46:01.979Z,4.60
2023-03-31T21:48:29.601Z,3.97
2023-03-31T21:51:00.413Z,5.63
2023-03-31T21:53:29.187Z,2.43
2023-03-31T21:55:57.679Z,1.10
2023-03-31T21:58:28.250Z,1.93
2023-03-31T22:00:56.326Z,3.57
2023-03-31T22:03:27.567Z,5.00
2023-03-31T22:05:58.694Z,2.00
2023-03-31T22:08:28.278Z,3.33
2023-03-31T22:10:57.146Z,1.17
2023-03-31T22:13:24.773Z,2.00
2023-03-31T22:15:51.431Z,2.93
2023-03-31T22:18:18.449Z,1.17
2023-03-31T22:20:45.805Z,1.10
2023-03-31T22:23:12.792Z,3.83
2023-03-31T22:25:39.224Z,1.20
2023-03-31T22:28:07.065Z,1.40
2023-03-31T22:30:33.959Z,2.40
2023-03-31T22:33:00.938Z,2.20
2023-03-31T22:35:27.798Z,2.23
2023-03-31T22:37:54.270Z,1.00
2023-03-31T22:40:20.897Z,1.67
2023-03-31T22:42:47.653Z,8.33
2023-03-31T22:45:14.193Z,1.40
2023-03-31T22:47:42.292Z,3.53
2023-03-31T22:50:10.982Z,2.90
2023-03-31T22:52:37.686Z,4.03
2023-03-31T22:55:05.478Z,1.53
2023-03-31T22:57:32.111Z,7.80
2023-03-31T22:59:58.603Z,2.50
2023-03-31T23:02:25.424Z,2.90
2023-03-31T23:04:51.961Z,3.17
2023-03-31T23:07:21.783Z,2.00
2023-03-31T23:09:48.493Z,3.23
2023-03-31T23:12:15.392Z,3.80
2023-03-31T23:14:41.898Z,2.17
2023-03-31T23:17:08.412Z,1.27
2023-03-31T23:19:34.860Z,3.63
2023-03-31T23:22:02.506Z,1.63
2023-03-31T23:24:29.966Z,1.43
2023-03-31T23:26:56.470Z,1.07
2023-03-31T23:29:23.451Z,2.97
2023-03-31T23:31:50.057Z,2.30
2023-03-31T23:34:16.562Z,1.13
2023-03-31T23:36:43.234Z,1.70
2023-03-31T23:39:10.546Z,1.20
2023-03-31T23:41:37.069Z,6.80
2023-03-31T23:44:04.038Z,1.70
2023-03-31T23:46:31.713Z,2.90
2023-03-31T23:48:59.115Z,1.40
2023-03-31T23:51:26.123Z,2.00
2023-03-31T23:53:52.837Z,3.77
2023-03-31T23:56:19.809Z,1.30
2023-03-31T23:58:47.038Z,0.90
